Luverne, MN

8:42 PM CST on December 09, 2019 (GMT -0600)
Luverne

Weather History for KLYV - November, 2019

Change the Weather History Date:

Sunday, November 17, 2019

  Actual Average (KPQN) Record (KPQN)
Temperature  
Mean Temperature 32 °F -  
Max Temperature 37 °F 38 °F 66 °F (2001)
Min Temperature 28 °F 22 °F 1 °F (2014)
Degree Days  
Heating Degree Days 32    
Moisture  
Dew Point 32 °F    
Average Humidity 90    
Maximum Humidity 100    
Minimum Humidity 81    
Precipitation  
Precipitation 0.00 in - - ()
Sea Level Pressure  
Sea Level Pressure 29.94 in    
Wind  
Wind Speed 7 mph (NW)    
Max Wind Speed 14 mph    
Max Gust Speed 21 mph    
Visibility 10 miles    
Events      
Averages and records for this station are not official NWS values.
T = Trace of Precipitation, MM = Missing Value Source: NWS Daily Summary

Daily Weather History Graph

Daily Weather History Graph

Search for Another Location

Airport or City:

Astronomy

Nov. 17, 2019 Rise Set
Actual Time 7:21 AM CST 4:57 PM CST
Civil Twilight 6:50 AM CST 5:29 PM CST
Nautical Twilight 6:15 AM CST 6:03 PM CST
Astronomical Twilight 5:41 AM CST 6:37 PM CST
Moon 9:33 PM CST (11/17) 12:10 PM CST (11/17)
Length of Visible Light 10h 38m
Length of Day
9h 36m
Waning Gibbous, 73% of the Moon is Illuminated
Nov 17
Waning Gibbous
Nov 19
Last Quarter
Nov 26
New
Dec 4
First Quarter
Dec 11
Full

Hourly Weather History & Observations

Time (CST) Temp. Windchill Dew Point Humidity Pressure Visibility Wind Dir Wind Speed Gust Speed Precip Events Conditions
12:16 AM 37.4 °F 31.4 °F 35.6 °F 93% 29.98 in 10.0 mi NW 8.1 mph - N/A   Drizzle
12:36 AM 37.4 °F 30.8 °F 35.6 °F 93% 29.98 in 10.0 mi NW 9.2 mph - N/A   Light Drizzle
12:55 AM 37.4 °F 32.1 °F 35.6 °F 93% 29.98 in 10.0 mi NNW 6.9 mph - N/A   Drizzle
1:15 AM 37.4 °F 33.8 °F 33.8 °F 87% 29.97 in 10.0 mi NNW 4.6 mph - N/A   Overcast
1:37 AM 37.4 °F 33.8 °F 33.8 °F 87% 29.97 in 10.0 mi NW 4.6 mph - N/A   Overcast
1:55 AM 37.4 °F 33.8 °F 33.8 °F 87% 29.97 in 10.0 mi NW 4.6 mph - N/A   Overcast
2:16 AM 37.4 °F 32.8 °F 33.8 °F 87% 29.97 in 10.0 mi NW 5.8 mph - N/A   Overcast
2:36 AM 37.4 °F 33.8 °F 35.6 °F 93% 29.97 in 10.0 mi NNW 4.6 mph - N/A   Overcast
2:59 AM 37.4 °F 32.8 °F 33.8 °F 87% 29.97 in 10.0 mi WNW 5.8 mph - N/A   Overcast
3:16 AM 35.6 °F 30.7 °F 33.8 °F 93% 29.97 in 10.0 mi WNW 5.8 mph - N/A   Overcast
3:36 AM 35.6 °F 30.7 °F 33.8 °F 93% 29.98 in 10.0 mi West 5.8 mph - N/A   Overcast
3:56 AM 35.6 °F 29.9 °F 33.8 °F 93% 29.97 in 10.0 mi WNW 6.9 mph - N/A   Overcast
4:15 AM 35.6 °F 32.8 °F 33.8 °F 93% 29.97 in 10.0 mi WNW 3.5 mph - N/A   Overcast
4:19 AM 35.6 °F 31.7 °F 33.8 °F 93% 29.98 in 10.0 mi WNW 4.6 mph - N/A   Overcast
4:37 AM 35.6 °F 30.7 °F 33.8 °F 93% 29.97 in 10.0 mi NW 5.8 mph - N/A   Overcast
4:55 AM 35.6 °F 31.7 °F 33.8 °F 93% 29.97 in 10.0 mi NW 4.6 mph - N/A   Overcast
5:16 AM 35.6 °F 32.8 °F 33.8 °F 93% 29.97 in 10.0 mi NW 3.5 mph - N/A   Overcast
5:36 AM 35.6 °F 30.7 °F 33.8 °F 93% 29.97 in 10.0 mi WNW 5.8 mph - N/A   Overcast
5:59 AM 35.6 °F 31.7 °F 33.8 °F 93% 29.96 in 10.0 mi NW 4.6 mph - N/A   Overcast
6:17 AM 35.6 °F 30.7 °F 33.8 °F 93% 29.97 in 10.0 mi NW 5.8 mph - N/A   Overcast
6:35 AM 35.6 °F 30.7 °F 33.8 °F 93% 29.97 in 10.0 mi NW 5.8 mph - N/A   Overcast
6:56 AM 35.6 °F 30.7 °F 33.8 °F 93% 29.97 in 10.0 mi NW 5.8 mph - N/A   Overcast
7:15 AM 35.6 °F 30.7 °F 33.8 °F 93% 29.97 in 10.0 mi NNW 5.8 mph - N/A   Overcast
7:20 AM 35.6 °F 30.7 °F 33.8 °F 93% 29.97 in 10.0 mi NNW 5.8 mph - N/A   Overcast
7:38 AM 35.6 °F 29.2 °F 33.8 °F 93% 29.97 in 10.0 mi NW 8.1 mph - N/A   Overcast
7:55 AM 35.6 °F 29.2 °F 33.8 °F 93% 29.98 in 10.0 mi NW 8.1 mph - N/A   Overcast
8:16 AM 35.6 °F 29.2 °F 33.8 °F 93% 29.98 in 10.0 mi NNW 8.1 mph - N/A   Overcast
8:35 AM 37.4 °F 30.8 °F 33.8 °F 87% 29.98 in 10.0 mi NW 9.2 mph - N/A   Overcast
8:58 AM 37.4 °F 30.3 °F 32.0 °F 81% 29.98 in 10.0 mi NW 10.4 mph 18.4 mph N/A   Overcast
9:16 AM 37.4 °F 30.3 °F 32.0 °F 81% 29.98 in 10.0 mi NNW 10.4 mph - N/A   Overcast
9:36 AM 37.4 °F 29.3 °F 32.0 °F 81% 29.99 in 10.0 mi NNW 12.7 mph 19.6 mph N/A   Overcast
9:55 AM 37.4 °F 29.8 °F 32.0 °F 81% 29.98 in 10.0 mi NNW 11.5 mph - N/A   Overcast
10:15 AM 37.4 °F 30.3 °F 32.0 °F 81% 29.99 in 10.0 mi NNW 10.4 mph 18.4 mph N/A   Overcast
10:20 AM 37.4 °F 30.3 °F 32.0 °F 81% 29.98 in 10.0 mi NNW 10.4 mph 16.1 mph N/A   Overcast
10:38 AM 37.4 °F 30.3 °F 32.0 °F 81% 29.98 in 10.0 mi NNW 10.4 mph 18.4 mph N/A   Overcast
10:55 AM 37.4 °F 30.3 °F 32.0 °F 81% 29.98 in 10.0 mi NNW 10.4 mph 20.7 mph N/A   Overcast
11:16 AM 37.4 °F 29.3 °F 32.0 °F 81% 29.98 in 10.0 mi NNW 12.7 mph 18.4 mph N/A   Overcast
11:36 AM 35.6 °F 27.5 °F 32.0 °F 87% 29.98 in 10.0 mi NW 11.5 mph 17.3 mph N/A   Overcast
11:59 AM 35.6 °F 27.1 °F 32.0 °F 87% 29.97 in 10.0 mi NNW 12.7 mph 18.4 mph N/A   Overcast
12:17 PM 35.6 °F 27.1 °F 32.0 °F 87% 29.97 in 10.0 mi NNW 12.7 mph - N/A   Overcast
12:36 PM 35.6 °F 28.0 °F 32.0 °F 87% 29.97 in 10.0 mi NNW 10.4 mph 16.1 mph N/A   Overcast
12:56 PM 35.6 °F 26.6 °F 32.0 °F 87% 29.97 in 10.0 mi NNW 13.8 mph - N/A   Overcast
1:15 PM 35.6 °F 27.5 °F 32.0 °F 87% 29.96 in 10.0 mi NNW 11.5 mph 18.4 mph N/A   Overcast
1:19 PM 35.6 °F 27.5 °F 32.0 °F 87% 29.96 in 10.0 mi NNW 11.5 mph 18.4 mph N/A   Overcast
1:37 PM 35.6 °F 28.0 °F 32.0 °F 87% 29.96 in 10.0 mi NNW 10.4 mph - N/A   Overcast
1:55 PM 35.6 °F 27.1 °F 32.0 °F 87% 29.95 in 10.0 mi NNW 12.7 mph - N/A   Overcast
2:16 PM 35.6 °F 29.2 °F 32.0 °F 87% 29.94 in 10.0 mi NNW 8.1 mph - N/A   Overcast
2:35 PM 35.6 °F 28.6 °F 32.0 °F 87% 29.93 in 10.0 mi NW 9.2 mph - N/A   Overcast
2:59 PM 35.6 °F 28.0 °F 32.0 °F 87% 29.93 in 10.0 mi WNW 10.4 mph - N/A   Overcast
3:16 PM 35.6 °F 27.1 °F 32.0 °F 87% 29.94 in 10.0 mi WNW 12.7 mph - N/A   Overcast
3:36 PM 35.6 °F 28.6 °F 32.0 °F 87% 29.94 in 10.0 mi NW 9.2 mph - N/A   Overcast
3:56 PM 35.6 °F 28.6 °F 32.0 °F 87% 29.93 in 10.0 mi NW 9.2 mph - N/A   Overcast
4:15 PM 35.6 °F 27.5 °F 32.0 °F 87% 29.94 in 10.0 mi NW 11.5 mph - N/A   Overcast
4:19 PM 35.6 °F 28.0 °F 32.0 °F 87% 29.94 in 10.0 mi NW 10.4 mph - N/A   Overcast
4:37 PM 35.6 °F 30.7 °F 32.0 °F 87% 29.93 in 10.0 mi NW 5.8 mph - N/A   Overcast
4:55 PM 35.6 °F 29.2 °F 32.0 °F 87% 29.93 in 10.0 mi NW 8.1 mph - N/A   Overcast
5:16 PM 35.6 °F 29.9 °F 32.0 °F 87% 29.91 in 10.0 mi NNW 6.9 mph - N/A   Overcast
5:35 PM 35.6 °F 28.6 °F 32.0 °F 87% 29.92 in 10.0 mi WNW 9.2 mph - N/A   Overcast
5:58 PM 33.8 °F 30.8 °F 32.0 °F 93% 29.91 in 10.0 mi NW 3.5 mph - N/A   Overcast
6:16 PM 33.8 °F 28.6 °F 32.0 °F 93% 29.91 in 10.0 mi WNW 5.8 mph - N/A   Overcast
6:35 PM 33.8 °F 29.6 °F 32.0 °F 93% 29.91 in 10.0 mi WNW 4.6 mph - N/A   Overcast
6:56 PM 35.6 °F 29.9 °F 32.0 °F 87% 29.92 in 10.0 mi WNW 6.9 mph - N/A   Overcast
7:15 PM 33.8 °F - 32.0 °F 93% 29.90 in 10.0 mi Calm Calm - N/A   Overcast
7:20 PM 33.8 °F - 32.0 °F 93% 29.90 in 10.0 mi Calm Calm - N/A   Overcast
7:37 PM 33.8 °F - 32.0 °F 93% 29.90 in 10.0 mi Calm Calm - N/A   Overcast
7:55 PM 33.8 °F - 32.0 °F 93% 29.89 in 10.0 mi Calm Calm - N/A   Overcast
8:15 PM 33.8 °F - 32.0 °F 93% 29.88 in 10.0 mi Calm Calm - N/A   Overcast
8:36 PM 33.8 °F - 32.0 °F 93% 29.88 in 10.0 mi Calm Calm - N/A   Overcast
8:58 PM 32.0 °F 27.5 °F 30.2 °F 93% 29.87 in 10.0 mi SSE 4.6 mph - N/A   Mostly Cloudy
9:16 PM 32.0 °F - 30.2 °F 93% 29.87 in 10.0 mi Calm Calm - N/A   Scattered Clouds
9:36 PM 32.0 °F - 30.2 °F 93% 29.87 in 7.0 mi Calm Calm - N/A   Clear
9:56 PM 28.4 °F 24.6 °F 26.6 °F 93% 29.86 in 7.0 mi South 3.5 mph - N/A   Clear
10:15 PM 28.4 °F - 28.4 °F 100% 29.85 in 4.0 mi Calm Calm - N/A   Clear
10:19 PM 30.2 °F - 28.4 °F 93% 29.85 in 4.0 mi Calm Calm - N/A   Clear
10:37 PM 28.4 °F 24.6 °F 28.4 °F 100% 29.84 in 3.0 mi South 3.5 mph - N/A   Clear
10:56 PM 28.4 °F - 28.4 °F 100% 29.84 in 2.5 mi Calm Calm - N/A   Clear
11:55 PM 30.2 °F - 28.4 °F 93% 29.81 in 7.0 mi Calm Calm - N/A   Clear